createdAt,value
2019-01-10T00:00:07.563Z,-0.64
2019-01-10T00:01:07.251Z,-0.59
2019-01-10T00:02:08.665Z,-0.63
2019-01-10T00:03:08.796Z,-0.64
2019-01-10T00:04:09.924Z,-0.51
2019-01-10T00:05:10.400Z,-0.57
2019-01-10T00:06:10.811Z,-0.57
2019-01-10T00:07:11.944Z,-0.51
2019-01-10T00:08:12.625Z,-0.6
2019-01-10T00:09:12.758Z,-0.57
2019-01-10T00:10:15.344Z,-0.53
2019-01-10T00:11:16.047Z,-0.59
2019-01-10T00:12:16.745Z,-0.48
2019-01-10T00:13:17.426Z,-0.51
2019-01-10T00:14:18.669Z,-0.45
2019-01-10T00:15:19.527Z,-0.51
2019-01-10T00:16:20.218Z,-0.44
2019-01-10T00:17:21.007Z,-0.49
2019-01-10T00:18:22.138Z,-0.39
2019-01-10T00:19:23.272Z,-0.42
2019-01-10T00:20:24.234Z,-0.41
2019-01-10T00:21:24.363Z,-0.26
2019-01-10T00:22:25.866Z,-0.36
2019-01-10T00:23:25.997Z,-0.24
2019-01-10T00:24:26.501Z,-0.2
2019-01-10T00:25:26.752Z,-0.24
2019-01-10T00:26:27.161Z,-0.18
2019-01-10T00:27:28.289Z,-0.28
2019-01-10T00:28:29.699Z,-0.26
2019-01-10T00:29:30.385Z,-0.3
2019-01-10T00:30:30.832Z,-0.27
2019-01-10T00:31:31.517Z,-0.39
2019-01-10T00:32:32.482Z,-0.36
2019-01-10T00:33:32.890Z,-0.36
2019-01-10T00:34:33.855Z,-0.44
2019-01-10T00:35:33.665Z,-0.48
2019-01-10T00:36:34.799Z,-0.44
2019-01-10T00:37:35.205Z,-0.41
2019-01-10T00:38:35.692Z,-0.35
2019-01-10T00:39:36.377Z,-0.28
2019-01-10T00:40:37.337Z,-0.24
2019-01-10T00:41:38.313Z,-0.23
2019-01-10T00:42:38.721Z,-0.24
2019-01-10T00:42:51.348Z,-0.24
2019-01-10T00:43:51.441Z,-0.2
2019-01-10T00:44:52.597Z,-0.26
2019-01-10T00:45:53.726Z,-0.17
2019-01-10T00:46:55.138Z,-0.18
2019-01-10T00:47:55.920Z,-0.15
2019-01-10T00:48:56.052Z,-0.12
2019-01-10T00:49:56.471Z,-0.1
2019-01-10T00:50:56.884Z,-0.18
2019-01-10T00:51:57.572Z,-0.15
2019-01-10T00:52:57.980Z,-0.13
2019-01-10T00:53:59.368Z,-0.07
2019-01-10T00:55:00.742Z,0
2019-01-10T00:56:01.755Z,-0.09
2019-01-10T00:57:02.720Z,-0.23
2019-01-10T00:58:03.409Z,-0.28
2019-01-10T00:59:04.654Z,-0.23
2019-01-10T01:00:04.617Z,-0.21
2019-01-10T01:01:04.865Z,-0.2
2019-01-10T01:02:05.827Z,-0.23
2019-01-10T01:03:06.794Z,-0.2
2019-01-10T01:04:07.341Z,-0.24
2019-01-10T01:05:07.750Z,-0.26
2019-01-10T01:06:08.163Z,-0.28
2019-01-10T01:07:08.846Z,-0.2
2019-01-10T01:08:08.980Z,-0.18
2019-01-10T01:09:10.112Z,-0.2
2019-01-10T01:10:11.076Z,-0.23
2019-01-10T01:11:11.486Z,-0.23
2019-01-10T01:12:12.252Z,-0.23
2019-01-10T01:13:12.664Z,-0.23
2019-01-10T01:14:14.604Z,-0.26
2019-01-10T01:15:14.569Z,-0.23
2019-01-10T01:16:14.983Z,-0.24
2019-01-10T01:17:17.178Z,-0.2
2019-01-10T01:18:18.608Z,-0.18
2019-01-10T01:19:18.739Z,-0.23
2019-01-10T01:20:19.423Z,-0.21
2019-01-10T01:21:19.832Z,-0.26
2019-01-10T01:22:20.064Z,-0.2
2019-01-10T01:23:20.750Z,-0.2
2019-01-10T01:24:21.305Z,-0.24
2019-01-10T01:25:22.549Z,-0.24
2019-01-10T01:26:22.237Z,-0.24
2019-01-10T01:27:23.202Z,-0.24
2019-01-10T01:28:23.891Z,-0.23
2019-01-10T01:29:24.592Z,-0.26
2019-01-10T01:30:25.408Z,-0.17
2019-01-10T01:31:26.197Z,-0.13
2019-01-10T01:32:27.162Z,-0.15
2019-01-10T01:33:28.140Z,-0.12
2019-01-10T01:34:28.238Z,-0.15
2019-01-10T01:35:28.933Z,-0.1
2019-01-10T01:36:30.065Z,-0.26
2019-01-10T01:37:31.195Z,-0.26
2019-01-10T01:38:32.323Z,-0.1
2019-01-10T01:39:33.457Z,-0.23
2019-01-10T01:40:34.585Z,-0.24
2019-01-10T01:41:34.991Z,-0.26
2019-01-10T01:42:35.958Z,-0.38
2019-01-10T01:43:36.647Z,-0.42
2019-01-10T01:44:37.186Z,-0.45
2019-01-10T01:45:37.594Z,-0.46
2019-01-10T01:46:38.281Z,-0.45
2019-01-10T01:47:38.968Z,-0.44
2019-01-10T01:48:39.660Z,-0.64
2019-01-10T01:49:40.628Z,-0.51
2019-01-10T01:50:41.038Z,-0.59
2019-01-10T01:51:42.018Z,-0.46
2019-01-10T01:52:42.708Z,-0.49
2019-01-10T01:53:42.835Z,-0.44
2019-01-10T01:54:43.374Z,-0.54
2019-01-10T01:55:43.785Z,-0.53
2019-01-10T01:56:44.916Z,-0.48
2019-01-10T01:57:45.888Z,-0.49
2019-01-10T01:58:47.135Z,-0.54
2019-01-10T01:59:47.543Z,-0.48
2019-01-10T02:00:47.954Z,-0.45
2019-01-10T02:01:48.369Z,-0.39
2019-01-10T02:02:48.777Z,-0.36
2019-01-10T02:03:50.018Z,-0.36
2019-01-10T02:04:50.852Z,-0.39
2019-01-10T02:05:51.260Z,-0.28
2019-01-10T02:06:51.391Z,-0.27
2019-01-10T02:07:52.076Z,-0.26
2019-01-10T02:08:53.084Z,-0.24
2019-01-10T02:09:53.772Z,-0.2
2019-01-10T02:10:55.294Z,-0.23
2019-01-10T02:11:55.981Z,-0.21
2019-01-10T02:12:56.114Z,-0.18
2019-01-10T02:13:56.808Z,-0.2
2019-01-10T02:14:57.846Z,-0.2
2019-01-10T02:15:57.981Z,-0.24
2019-01-10T02:16:59.107Z,-0.23
2019-01-10T02:18:00.349Z,-0.21
2019-01-10T02:19:02.031Z,-0.06
2019-01-10T02:20:02.725Z,-0.13
2019-01-10T02:21:02.689Z,-0.15
2019-01-10T02:22:03.930Z,-0.09
2019-01-10T02:23:04.620Z,-0.15
2019-01-10T02:24:05.600Z,-0.21
2019-01-10T02:25:05.719Z,-0.28
2019-01-10T02:26:06.687Z,-0.28
2019-01-10T02:27:06.891Z,-0.26
2019-01-10T02:28:07.861Z,-0.18
2019-01-10T02:29:08.547Z,-0.18
2019-01-10T02:30:09.510Z,-0.12
2019-01-10T02:31:10.046Z,-0.23
2019-01-10T02:32:10.731Z,-0.21
2019-01-10T02:33:11.419Z,-0.18
2019-01-10T02:34:12.401Z,-0.24
2019-01-10T02:35:13.368Z,-0.21
2019-01-10T02:36:14.129Z,-0.26
2019-01-10T02:37:14.377Z,-0.24
2019-01-10T02:38:15.354Z,-0.28
2019-01-10T02:39:16.482Z,-0.26
2019-01-10T02:40:16.910Z,-0.24
2019-01-10T02:41:18.162Z,-0.3
2019-01-10T02:42:19.141Z,-0.23
2019-01-10T02:43:31.738Z,-0.24
2019-01-10T02:44:32.487Z,-0.24
2019-01-10T02:45:32.621Z,-0.23
2019-01-10T02:46:33.029Z,-0.24
2019-01-10T02:47:34.482Z,-0.31
2019-01-10T02:48:35.011Z,-0.31
2019-01-10T02:49:36.252Z,-0.38
2019-01-10T02:50:37.233Z,-0.38
2019-01-10T02:51:37.507Z,-0.45
2019-01-10T02:52:38.192Z,-0.45
2019-01-10T02:53:38.973Z,-0.49
2019-01-10T02:54:40.080Z,-0.46
2019-01-10T02:55:41.052Z,-0.54
2019-01-10T02:56:40.786Z,-0.48
2019-01-10T02:57:41.205Z,-0.48
2019-01-10T02:58:42.227Z,-0.45
2019-01-10T02:59:42.923Z,-0.48
2019-01-10T03:00:43.196Z,-0.48
2019-01-10T03:01:44.242Z,-0.41
2019-01-10T03:02:45.229Z,-0.41
2019-01-10T03:03:46.215Z,-0.38
2019-01-10T03:04:47.329Z,-0.42
2019-01-10T03:05:48.857Z,-0.48
2019-01-10T03:06:48.842Z,-0.35
2019-01-10T03:07:49.556Z,-0.44
2019-01-10T03:08:50.367Z,-0.45
2019-01-10T03:09:50.784Z,-0.42
2019-01-10T03:10:51.745Z,-0.42
2019-01-10T03:11:52.720Z,-0.46
2019-01-10T03:12:53.978Z,-0.45
2019-01-10T03:13:54.219Z,-0.46
2019-01-10T03:14:55.336Z,-0.44
2019-01-10T03:15:56.029Z,-0.44
2019-01-10T03:16:57.716Z,-0.44
2019-01-10T03:17:57.972Z,-0.35
2019-01-10T03:18:58.941Z,-0.36
2019-01-10T03:19:59.361Z,-0.21
2019-01-10T03:21:00.665Z,-0.28
2019-01-10T03:22:00.631Z,-0.23
2019-01-10T03:23:01.322Z,-0.27
2019-01-10T03:24:01.845Z,-0.33
2019-01-10T03:25:02.823Z,-0.28
2019-01-10T03:26:03.075Z,-0.27
2019-01-10T03:27:03.504Z,-0.26
2019-01-10T03:28:04.300Z,-0.2
2019-01-10T03:29:04.547Z,-0.23
2019-01-10T03:30:04.791Z,-0.24
2019-01-10T03:31:06.351Z,-0.17
2019-01-10T03:32:06.138Z,-0.18
2019-01-10T03:33:07.431Z,-0.26
2019-01-10T03:34:07.705Z,-0.28
2019-01-10T03:35:08.108Z,-0.17
2019-01-10T03:36:08.791Z,-0.2
2019-01-10T03:37:09.209Z,-0.21
2019-01-10T03:38:09.898Z,-0.27
2019-01-10T03:39:10.592Z,-0.23
2019-01-10T03:40:12.573Z,-0.26
2019-01-10T03:41:13.552Z,-0.23
2019-01-10T03:42:14.798Z,-0.27
2019-01-10T03:43:15.306Z,-0.28
2019-01-10T03:44:16.546Z,-0.24
2019-01-10T03:45:16.662Z,-0.28
2019-01-10T03:46:17.367Z,-0.2
2019-01-10T03:47:18.330Z,-0.26
2019-01-10T03:48:19.295Z,-0.27
2019-01-10T03:49:19.260Z,-0.24
2019-01-10T03:50:20.228Z,-0.28
2019-01-10T03:51:21.360Z,-0.23
2019-01-10T03:52:22.349Z,-0.28
2019-01-10T03:53:23.034Z,-0.23
2019-01-10T03:54:24.133Z,-0.21
2019-01-10T03:55:24.727Z,-0.27
2019-01-10T03:56:25.519Z,-0.26
2019-01-10T03:57:26.484Z,-0.24
2019-01-10T03:58:27.169Z,-0.24
2019-01-10T03:59:27.409Z,-0.12
2019-01-10T04:00:28.373Z,-0.26
2019-01-10T04:01:29.298Z,-0.28
2019-01-10T04:02:30.279Z,-0.18
2019-01-10T04:03:30.525Z,-0.24
2019-01-10T04:04:31.505Z,-0.27
2019-01-10T04:05:31.621Z,-0.21
2019-01-10T04:06:32.426Z,-0.28
2019-01-10T04:07:33.115Z,-0.28
2019-01-10T04:08:34.077Z,-0.23
2019-01-10T04:09:35.047Z,-0.1
2019-01-10T04:10:35.736Z,-0.23
2019-01-10T04:11:36.750Z,-0.21
2019-01-10T04:12:37.717Z,-0.18
2019-01-10T04:13:37.427Z,-0.2
2019-01-10T04:14:38.564Z,-0.3
2019-01-10T04:15:39.212Z,-0.27
2019-01-10T04:16:39.625Z,-0.26
2019-01-10T04:17:41.147Z,-0.28
2019-01-10T04:18:41.942Z,-0.26
2019-01-10T04:19:42.940Z,-0.15
2019-01-10T04:20:43.348Z,-0.31
2019-01-10T04:21:44.895Z,-0.26
2019-01-10T04:22:45.606Z,-0.3
2019-01-10T04:23:45.954Z,-0.24
2019-01-10T04:24:46.195Z,-0.26
2019-01-10T04:25:46.480Z,-0.36
2019-01-10T04:26:47.445Z,-0.39
2019-01-10T04:27:48.495Z,-0.36
2019-01-10T04:28:49.457Z,-0.39
2019-01-10T04:29:50.699Z,-0.39
2019-01-10T04:30:51.397Z,-0.38
2019-01-10T04:31:52.074Z,-0.44
2019-01-10T04:32:53.040Z,-0.41
2019-01-10T04:33:53.733Z,-0.36
2019-01-10T04:34:54.424Z,-0.41
2019-01-10T04:35:55.799Z,-0.35
2019-01-10T04:36:57.100Z,-0.28
2019-01-10T04:37:58.341Z,-0.3
2019-01-10T04:38:58.875Z,-0.28
2019-01-10T04:39:58.845Z,-0.21
2019-01-10T04:40:59.933Z,-0.18
2019-01-10T04:42:00.344Z,-0.23
2019-01-10T04:43:01.310Z,-0.3
2019-01-10T04:44:08.369Z,-0.24
2019-01-10T04:44:13.462Z,-0.24
2019-01-10T04:45:13.842Z,-0.18
2019-01-10T04:46:15.251Z,-0.15
2019-01-10T04:47:16.665Z,-0.24
2019-01-10T04:48:17.076Z,-0.27
2019-01-10T04:49:17.489Z,-0.28
2019-01-10T04:50:18.181Z,-0.13
2019-01-10T04:51:19.026Z,-0.21
2019-01-10T04:52:19.731Z,-0.24
2019-01-10T04:53:20.429Z,-0.24
2019-01-10T04:54:20.838Z,-0.26
2019-01-10T04:55:21.516Z,-0.23
2019-01-10T04:56:21.930Z,-0.18
2019-01-10T04:57:22.344Z,-0.27
2019-01-10T04:58:23.032Z,-0.21
2019-01-10T04:59:23.443Z,-0.3
2019-01-10T05:00:24.591Z,-0.26
2019-01-10T05:01:25.441Z,-0.23
2019-01-10T05:02:25.573Z,-0.21
2019-01-10T05:03:27.101Z,-0.21
2019-01-10T05:04:27.931Z,-0.31
2019-01-10T05:05:28.836Z,-0.24
2019-01-10T05:06:30.176Z,-0.28
2019-01-10T05:07:29.864Z,-0.44
2019-01-10T05:08:30.274Z,-0.48
2019-01-10T05:09:31.247Z,-0.54
2019-01-10T05:10:32.498Z,-0.56
2019-01-10T05:11:33.043Z,-0.57
2019-01-10T05:12:33.834Z,-0.64
2019-01-10T05:13:34.527Z,-0.62
2019-01-10T05:14:35.572Z,-0.6
2019-01-10T05:15:36.389Z,-0.49
2019-01-10T05:16:37.073Z,-0.56
2019-01-10T05:17:37.802Z,-0.63
2019-01-10T05:18:39.602Z,-0.64
2019-01-10T05:19:40.394Z,-0.57
2019-01-10T05:20:41.110Z,-0.46
2019-01-10T05:21:42.076Z,-0.49
2019-01-10T05:22:42.481Z,-0.49
2019-01-10T05:23:42.888Z,-0.45
2019-01-10T05:24:43.875Z,-0.42
2019-01-10T05:25:43.801Z,-0.45
2019-01-10T05:26:44.492Z,-0.44
2019-01-10T05:27:44.905Z,-0.36
2019-01-10T05:28:45.146Z,-0.38
2019-01-10T05:29:46.677Z,-0.42
2019-01-10T05:30:46.361Z,-0.28
2019-01-10T05:31:47.137Z,-0.41
2019-01-10T05:32:48.110Z,-0.36
2019-01-10T05:33:48.455Z,-0.26
2019-01-10T05:34:49.418Z,-0.21
2019-01-10T05:35:49.334Z,-0.26
2019-01-10T05:36:50.024Z,-0.18
2019-01-10T05:37:50.711Z,-0.24
2019-01-10T05:38:51.410Z,-0.2
2019-01-10T05:39:52.931Z,-0.28
2019-01-10T05:40:53.066Z,-0.2
2019-01-10T05:41:54.316Z,-0.21
2019-01-10T05:42:55.075Z,-0.24
2019-01-10T05:43:56.315Z,-0.26
2019-01-10T05:44:56.448Z,-0.24
2019-01-10T05:45:57.612Z,-0.18
2019-01-10T05:46:58.300Z,-0.26
2019-01-10T05:47:59.545Z,-0.13
2019-01-10T05:49:00.004Z,-0.13
2019-01-10T05:50:00.936Z,-0.09
2019-01-10T05:51:01.222Z,-0.13
2019-01-10T05:52:01.948Z,-0.09
2019-01-10T05:53:02.305Z,0.01
2019-01-10T05:54:03.227Z,-0.1
2019-01-10T05:55:03.640Z,-0.17
2019-01-10T05:56:03.771Z,-0.09
2019-01-10T05:57:04.744Z,-0.31
2019-01-10T05:58:05.798Z,-0.2
2019-01-10T05:59:05.926Z,-0.24
2019-01-10T06:00:07.058Z,-0.18
2019-01-10T06:01:08.024Z,-0.24
2019-01-10T06:02:08.436Z,-0.2
2019-01-10T06:03:08.849Z,-0.23
2019-01-10T06:04:09.533Z,-0.26
2019-01-10T06:05:11.595Z,-0.27
2019-01-10T06:06:12.988Z,-0.24
2019-01-10T06:07:13.120Z,-0.28
2019-01-10T06:08:13.531Z,-0.28
2019-01-10T06:09:13.939Z,-0.26
2019-01-10T06:10:14.627Z,-0.21
2019-01-10T06:11:15.311Z,-0.23
2019-01-10T06:12:15.277Z,-0.21
2019-01-10T06:13:16.522Z,-0.26
2019-01-10T06:14:16.763Z,-0.24
2019-01-10T06:15:17.002Z,-0.28
2019-01-10T06:16:17.113Z,-0.26
2019-01-10T06:17:18.443Z,-0.31
2019-01-10T06:18:18.854Z,-0.3
2019-01-10T06:19:31.563Z,-0.26
2019-01-10T06:20:32.408Z,-0.27
2019-01-10T06:21:33.645Z,-0.21
2019-01-10T06:22:33.913Z,-0.24
2019-01-10T06:23:34.599Z,-0.27
2019-01-10T06:24:34.572Z,-0.31
2019-01-10T06:25:35.256Z,-0.26
2019-01-10T06:26:36.233Z,-0.21
2019-01-10T06:27:36.363Z,-0.21
2019-01-10T06:28:37.773Z,-0.2
2019-01-10T06:29:38.754Z,-0.28
2019-01-10T06:30:39.567Z,-0.26
2019-01-10T06:31:40.697Z,-0.21
2019-01-10T06:32:42.815Z,-0.28
2019-01-10T06:33:43.228Z,-0.18
2019-01-10T06:34:43.472Z,-0.28
2019-01-10T06:35:43.878Z,-0.23
2019-01-10T06:36:44.567Z,-0.26
2019-01-10T06:37:45.531Z,-0.21
2019-01-10T06:38:45.720Z,-0.15
2019-01-10T06:39:46.131Z,-0.27
2019-01-10T06:40:47.257Z,-0.18
2019-01-10T06:41:47.947Z,-0.26
2019-01-10T06:42:48.078Z,-0.27
2019-01-10T06:43:49.217Z,-0.23
2019-01-10T06:44:50.183Z,-0.28
2019-01-10T06:45:50.592Z,-0.21
2019-01-10T06:46:50.557Z,-0.2
2019-01-10T06:47:51.270Z,-0.23
2019-01-10T06:48:51.956Z,-0.2
2019-01-10T06:49:52.920Z,-0.18
2019-01-10T06:50:54.292Z,-0.13
2019-01-10T06:51:54.706Z,-0.07
2019-01-10T06:52:55.735Z,-0.12
2019-01-10T06:53:56.560Z,-0.15
2019-01-10T06:54:57.758Z,-0.1
2019-01-10T06:55:58.169Z,-0.12
2019-01-10T06:56:58.577Z,-0.18
2019-01-10T06:57:59.593Z,-0.15
2019-01-10T06:59:00.372Z,-0.2
2019-01-10T07:00:01.505Z,-0.13
2019-01-10T07:01:02.432Z,-0.23
2019-01-10T07:02:02.847Z,-0.15
2019-01-10T07:03:03.848Z,-0.23
2019-01-10T07:04:04.269Z,-0.27
2019-01-10T07:05:04.958Z,-0.2
2019-01-10T07:06:05.647Z,-0.09
2019-01-10T07:07:06.893Z,-0.13
2019-01-10T07:08:07.861Z,-0.15
2019-01-10T07:09:08.567Z,-0.18
2019-01-10T07:10:09.541Z,-0.1
2019-01-10T07:11:10.083Z,-0.07
2019-01-10T07:12:11.212Z,-0.06
2019-01-10T07:13:12.176Z,0.05
2019-01-10T07:14:12.589Z,-0.03
2019-01-10T07:15:13.280Z,0.05
2019-01-10T07:16:14.419Z,-0.06
2019-01-10T07:17:17.472Z,0.01
2019-01-10T07:18:17.160Z,0.01
2019-01-10T07:19:18.570Z,0.02
2019-01-10T07:20:19.983Z,-0.03
2019-01-10T07:21:21.260Z,-0.06
2019-01-10T07:22:21.673Z,-0.05
2019-01-10T07:23:22.085Z,-0.03
2019-01-10T07:24:22.497Z,0
2019-01-10T07:25:23.205Z,-0.06
2019-01-10T07:26:24.617Z,-0.05
2019-01-10T07:27:25.585Z,0.01
2019-01-10T07:28:26.000Z,-0.03
2019-01-10T07:29:26.713Z,0
2019-01-10T07:30:39.869Z,-0.09
2019-01-10T07:31:40.131Z,-0.03
2019-01-10T07:32:40.715Z,-0.12
2019-01-10T07:33:41.412Z,-0.06
2019-01-10T07:34:42.826Z,-0.03
2019-01-10T07:35:43.801Z,-0.05
2019-01-10T07:36:45.978Z,-0.06
2019-01-10T07:37:44.946Z,-0.05
2019-01-10T07:38:45.361Z,0.01
2019-01-10T07:39:46.335Z,-0.03
2019-01-10T07:40:46.308Z,0.02
2019-01-10T07:41:46.694Z,0.02
2019-01-10T07:42:47.111Z,0.09
2019-01-10T07:43:47.831Z,0.09
2019-01-10T07:44:49.219Z,-0.05
2019-01-10T07:45:50.287Z,0.01
2019-01-10T07:46:51.068Z,0.01
2019-01-10T07:47:52.757Z,0.06
2019-01-10T07:48:53.178Z,0.09
2019-01-10T07:49:53.333Z,-0.06
2019-01-10T07:50:53.750Z,-0.07
2019-01-10T07:51:55.122Z,-0.02
2019-01-10T07:52:55.899Z,-0.03
2019-01-10T07:53:56.034Z,-0.03
2019-01-10T07:54:56.497Z,0.05
2019-01-10T07:55:57.197Z,0.02
2019-01-10T07:56:58.162Z,-0.07
2019-01-10T07:57:58.582Z,0.06
2019-01-10T07:58:59.720Z,0.02
2019-01-10T08:00:01.230Z,0.06
2019-01-10T08:01:02.519Z,0.08
2019-01-10T08:02:02.646Z,0.08
2019-01-10T08:03:03.348Z,0.09
2019-01-10T08:04:04.041Z,0.11
2019-01-10T08:05:04.827Z,0.13
2019-01-10T08:06:05.972Z,0.18
2019-01-10T08:07:07.105Z,0.19
2019-01-10T08:08:07.905Z,0.16
2019-01-10T08:09:08.610Z,0.16
2019-01-10T08:10:10.300Z,0.18
2019-01-10T08:11:10.712Z,0.11
2019-01-10T08:12:11.808Z,0.16
2019-01-10T08:13:12.942Z,0.16
2019-01-10T08:14:14.078Z,0.18
2019-01-10T08:15:14.844Z,0.09
2019-01-10T08:16:15.978Z,0.18
2019-01-10T08:17:17.897Z,0.19
2019-01-10T08:18:18.586Z,0.26
2019-01-10T08:19:19.551Z,0.2
2019-01-10T08:20:20.248Z,0.13
2019-01-10T08:21:20.940Z,0.12
2019-01-10T08:22:34.508Z,0.15
2019-01-10T08:23:35.073Z,0.12
2019-01-10T08:24:36.048Z,0.15
2019-01-10T08:25:40.957Z,0.16
2019-01-10T08:25:51.731Z,0.16
2019-01-10T08:26:04.167Z,0.15
2019-01-10T08:27:02.555Z,0.18
2019-01-10T08:28:03.560Z,0.2
2019-01-10T08:29:03.531Z,0.24
2019-01-10T08:30:04.225Z,0.2
2019-01-10T08:31:04.915Z,0.27
2019-01-10T08:32:06.357Z,0.24
2019-01-10T08:33:07.337Z,0.26
2019-01-10T08:34:08.021Z,0.27
2019-01-10T08:35:08.434Z,0.23
2019-01-10T08:36:09.127Z,0.3
2019-01-10T08:37:09.680Z,0.31
2019-01-10T08:38:10.763Z,0.3
2019-01-10T08:39:11.461Z,0.31
2019-01-10T08:40:12.432Z,0.36
2019-01-10T08:41:15.394Z,0.37
2019-01-10T08:42:15.080Z,0.44
2019-01-10T08:43:15.772Z,0.33
2019-01-10T08:44:16.591Z,0.31
2019-01-10T08:45:23.315Z,0.23
2019-01-10T08:45:29.231Z,0.33
2019-01-10T08:46:29.590Z,0.29
2019-01-10T08:47:32.648Z,0.3
2019-01-10T08:48:31.194Z,0.3
2019-01-10T08:49:31.884Z,0.37
2019-01-10T08:50:32.578Z,0.26
2019-01-10T08:51:33.833Z,0.3
2019-01-10T08:52:35.837Z,0.36
2019-01-10T08:53:37.360Z,0.39
2019-01-10T08:54:37.751Z,0.33
2019-01-10T08:55:38.927Z,0.31
2019-01-10T08:56:39.847Z,0.4
2019-01-10T08:57:40.815Z,0.42
2019-01-10T08:58:42.058Z,0.44
2019-01-10T08:59:42.477Z,0.47
2019-01-10T09:00:43.006Z,0.37
2019-01-10T09:01:43.711Z,0.4
2019-01-10T09:02:43.956Z,0.51
2019-01-10T09:03:44.199Z,0.49
2019-01-10T09:04:44.893Z,0.49
2019-01-10T09:05:45.588Z,0.47
2019-01-10T09:06:46.682Z,0.51
2019-01-10T09:07:47.380Z,0.49
2019-01-10T09:08:48.350Z,0.51
2019-01-10T09:09:49.042Z,0.51
2019-01-10T09:10:49.458Z,0.59
2019-01-10T09:11:50.678Z,0.58
2019-01-10T09:12:51.378Z,0.63
2019-01-10T09:13:51.794Z,0.64
2019-01-10T09:14:53.210Z,0.52
2019-01-10T09:15:54.520Z,0.68
2019-01-10T09:16:54.782Z,0.68
2019-01-10T09:17:55.759Z,0.64
2019-01-10T09:18:56.735Z,0.78
2019-01-10T09:19:57.150Z,0.77
2019-01-10T09:21:10.592Z,0.78
2019-01-10T09:22:11.783Z,0.81
2019-01-10T09:23:12.255Z,0.88
2019-01-10T09:24:12.392Z,0.86
2019-01-10T09:25:13.360Z,0.86
2019-01-10T09:26:14.331Z,0.89
2019-01-10T09:27:15.022Z,0.88
2019-01-10T09:28:16.159Z,0.92
2019-01-10T09:29:17.292Z,0.84
2019-01-10T09:30:17.707Z,0.88
2019-01-10T09:31:19.234Z,0.81
2019-01-10T09:32:19.891Z,0.84
2019-01-10T09:33:20.586Z,0.86
2019-01-10T09:34:26.272Z,0.91
2019-01-10T09:34:33.361Z,0.85
2019-01-10T09:35:34.184Z,0.91
2019-01-10T09:36:34.599Z,0.89
2019-01-10T09:37:35.330Z,0.85
2019-01-10T09:38:36.021Z,0.86
2019-01-10T09:39:36.993Z,0.92
2019-01-10T09:40:37.403Z,0.82
2019-01-10T09:41:38.373Z,0.82
2019-01-10T09:42:40.095Z,0.88
2019-01-10T09:43:40.639Z,0.88
2019-01-10T09:44:40.888Z,0.81
2019-01-10T09:45:44.770Z,0.82
2019-01-10T09:46:45.231Z,0.89
2019-01-10T09:47:45.918Z,0.82
2019-01-10T09:48:46.333Z,0.94
2019-01-10T09:49:46.746Z,0.91
2019-01-10T09:50:48.162Z,0.95
2019-01-10T09:51:48.576Z,1
2019-01-10T09:52:50.101Z,0.94
2019-01-10T09:53:50.349Z,0.99
2019-01-10T09:54:50.766Z,0.92
2019-01-10T09:55:51.312Z,0.85
2019-01-10T09:56:51.767Z,0.85
2019-01-10T09:57:53.191Z,0.86
2019-01-10T09:58:53.432Z,0.81
2019-01-10T09:59:54.897Z,0.91
2019-01-10T10:00:55.896Z,1.02
2019-01-10T10:01:56.323Z,1.03
2019-01-10T10:02:57.697Z,1.03
2019-01-10T10:03:58.392Z,1.04
2019-01-10T10:05:01.228Z,1.07
2019-01-10T10:06:11.132Z,1.12
2019-01-10T10:07:11.993Z,1.1
2019-01-10T10:08:13.396Z,1.12
2019-01-10T10:09:14.334Z,1.16
2019-01-10T10:10:15.083Z,1.27
2019-01-10T10:11:16.333Z,1.24
2019-01-10T10:12:16.745Z,1.27
2019-01-10T10:13:17.439Z,1.3
2019-01-10T10:14:18.573Z,1.32
2019-01-10T10:15:19.544Z,1.3
2019-01-10T10:16:20.253Z,1.3
2019-01-10T10:17:21.265Z,1.34
2019-01-10T10:18:21.771Z,1.28
2019-01-10T10:19:22.464Z,1.27
2019-01-10T10:20:24.156Z,1.24
2019-01-10T10:21:24.125Z,1.34
2019-01-10T10:22:25.544Z,1.27
2019-01-10T10:23:28.039Z,1.3
2019-01-10T10:24:28.458Z,1.32
2019-01-10T10:25:29.194Z,1.43
2019-01-10T10:26:29.890Z,1.34
2019-01-10T10:27:30.990Z,1.36
2019-01-10T10:28:31.129Z,1.34
2019-01-10T10:29:32.102Z,1.38
2019-01-10T10:30:33.075Z,1.27
2019-01-10T10:31:33.770Z,1.4
2019-01-10T10:32:34.455Z,1.34
2019-01-10T10:33:35.600Z,1.28
2019-01-10T10:34:36.575Z,1.28
2019-01-10T10:35:38.027Z,1.32
2019-01-10T10:36:38.443Z,1.4
2019-01-10T10:37:39.264Z,1.31
2019-01-10T10:38:39.694Z,1.28
2019-01-10T10:39:40.104Z,1.28
2019-01-10T10:40:41.259Z,1.3
2019-01-10T10:41:41.942Z,1.3
2019-01-10T10:42:42.085Z,1.32
2019-01-10T10:43:43.062Z,1.22
2019-01-10T10:44:43.772Z,1.3
2019-01-10T10:45:43.903Z,1.21
2019-01-10T10:46:44.415Z,1.18
2019-01-10T10:47:44.962Z,1.16
2019-01-10T10:48:45.945Z,1.1
2019-01-10T10:49:45.637Z,1.1
2019-01-10T10:50:47.047Z,1.21
2019-01-10T10:51:47.185Z,1.2
2019-01-10T10:52:48.600Z,1.24
2019-01-10T10:53:49.124Z,1.31
2019-01-10T10:54:49.729Z,1.3
2019-01-10T10:55:50.228Z,1.31
2019-01-10T10:56:51.358Z,1.31
2019-01-10T10:57:51.643Z,1.24
2019-01-10T10:58:53.056Z,1.27
2019-01-10T10:59:53.752Z,1.28
2019-01-10T11:00:54.449Z,1.31
2019-01-10T11:01:55.139Z,1.24
2019-01-10T11:02:56.113Z,1.21
2019-01-10T11:03:56.364Z,1.14
2019-01-10T11:04:58.057Z,1.22
2019-01-10T11:05:58.747Z,1.24
2019-01-10T11:06:59.438Z,1.27
2019-01-10T11:08:01.095Z,1.3
2019-01-10T11:09:12.359Z,1.3
2019-01-10T11:10:12.909Z,1.36
2019-01-10T11:11:13.350Z,1.34
2019-01-10T11:12:14.324Z,1.38
2019-01-10T11:13:14.737Z,1.34
2019-01-10T11:14:15.429Z,1.25
2019-01-10T11:15:16.569Z,1.18
2019-01-10T11:16:17.081Z,1.28
2019-01-10T11:17:17.984Z,1.2
2019-01-10T11:18:19.047Z,1.25
2019-01-10T11:19:20.206Z,1.2
2019-01-10T11:20:20.291Z,1.21
2019-01-10T11:21:22.232Z,1.22
2019-01-10T11:22:22.928Z,1.3
2019-01-10T11:23:24.035Z,1.32
2019-01-10T11:24:24.097Z,1.42
2019-01-10T11:25:25.530Z,1.45
2019-01-10T11:26:26.118Z,1.43
2019-01-10T11:27:26.917Z,1.42
2019-01-10T11:28:27.602Z,1.5
2019-01-10T11:29:28.250Z,1.53
2019-01-10T11:30:29.492Z,1.5
2019-01-10T11:31:30.185Z,1.58
2019-01-10T11:32:30.872Z,1.64
2019-01-10T11:33:32.130Z,1.66
2019-01-10T11:34:33.102Z,1.7
2019-01-10T11:35:33.528Z,1.66
2019-01-10T11:36:34.217Z,1.66
2019-01-10T11:37:35.286Z,1.63
2019-01-10T11:38:35.978Z,1.61
2019-01-10T11:39:36.389Z,1.71
2019-01-10T11:40:36.938Z,1.67
2019-01-10T11:41:37.656Z,1.63
2019-01-10T11:42:38.342Z,1.66
2019-01-10T11:43:38.763Z,1.78
2019-01-10T11:44:39.178Z,1.64
2019-01-10T11:45:40.873Z,1.81
2019-01-10T11:46:41.596Z,1.76
2019-01-10T11:47:42.572Z,1.75
2019-01-10T11:48:43.265Z,1.79
2019-01-10T11:49:43.998Z,1.68
2019-01-10T11:50:44.479Z,1.79
2019-01-10T11:51:45.613Z,1.74
2019-01-10T11:52:46.534Z,1.81
2019-01-10T11:53:46.674Z,1.67
2019-01-10T11:54:49.923Z,1.82
2019-01-10T11:55:48.450Z,1.76
2019-01-10T11:56:49.871Z,1.7
2019-01-10T11:57:50.100Z,1.7
2019-01-10T11:58:50.533Z,1.57
2019-01-10T11:59:51.228Z,1.53
2019-01-10T12:00:51.871Z,1.56
2019-01-10T12:01:56.776Z,1.56
2019-01-10T12:02:05.771Z,1.5
2019-01-10T12:03:09.738Z,1.45
2019-01-10T12:03:18.751Z,1.53
2019-01-10T12:04:18.667Z,1.6
2019-01-10T12:05:19.080Z,1.56
2019-01-10T12:06:19.502Z,1.66
2019-01-10T12:07:20.196Z,1.74
2019-01-10T12:08:20.888Z,1.7
2019-01-10T12:09:21.310Z,1.58
2019-01-10T12:10:22.280Z,1.71
2019-01-10T12:11:23.530Z,1.71
2019-01-10T12:12:23.500Z,1.68
2019-01-10T12:13:27.214Z,1.57
2019-01-10T12:13:35.942Z,1.57
2019-01-10T12:14:37.431Z,1.6
2019-01-10T12:15:37.404Z,1.56
2019-01-10T12:16:38.277Z,1.52
2019-01-10T12:17:38.994Z,1.56
2019-01-10T12:18:39.926Z,1.6
2019-01-10T12:19:40.968Z,1.53
2019-01-10T12:20:41.665Z,1.5
2019-01-10T12:21:42.751Z,1.45
2019-01-10T12:22:43.174Z,1.56
2019-01-10T12:23:44.147Z,1.52
2019-01-10T12:24:44.563Z,1.6
2019-01-10T12:25:45.174Z,1.56
2019-01-10T12:26:45.328Z,1.6
2019-01-10T12:27:46.022Z,1.5
2019-01-10T12:28:46.438Z,1.6
2019-01-10T12:29:47.853Z,1.52
2019-01-10T12:30:47.990Z,1.38
2019-01-10T12:31:48.685Z,1.39
2019-01-10T12:32:49.934Z,1.39
2019-01-10T12:33:50.072Z,1.31
2019-01-10T12:34:51.767Z,1.3
2019-01-10T12:35:52.183Z,1.4
2019-01-10T12:37:04.353Z,1.25
2019-01-10T12:38:04.923Z,1.13
2019-01-10T12:39:05.616Z,1.21
2019-01-10T12:40:06.309Z,1.18
2019-01-10T12:41:06.555Z,1.18
2019-01-10T12:42:10.036Z,1.18
2019-01-10T12:43:08.943Z,1.13
2019-01-10T12:44:12.611Z,1
2019-01-10T12:45:11.392Z,1.02
2019-01-10T12:46:11.889Z,0.99
2019-01-10T12:47:11.862Z,1.03
2019-01-10T12:48:14.228Z,1.04
2019-01-10T12:49:15.478Z,1.03
2019-01-10T12:50:16.613Z,1.09
2019-01-10T12:51:17.791Z,1.2
2019-01-10T12:52:18.927Z,1.14
2019-01-10T12:53:19.612Z,1.1
2019-01-10T12:54:23.093Z,1.13
2019-01-10T12:55:21.130Z,1.13
2019-01-10T12:56:21.114Z,1.2
2019-01-10T12:57:21.525Z,1.24
2019-01-10T12:58:22.349Z,1.18
2019-01-10T12:59:22.770Z,1.12
2019-01-10T13:00:23.849Z,1.18
2019-01-10T13:01:25.415Z,1.21
2019-01-10T13:02:25.475Z,1.16
2019-01-10T13:03:26.448Z,1.07
2019-01-10T13:04:27.136Z,1.09
2019-01-10T13:05:28.552Z,0.95
2019-01-10T13:06:29.247Z,0.89
2019-01-10T13:07:30.216Z,0.91
2019-01-10T13:08:31.079Z,0.78
2019-01-10T13:09:31.494Z,0.77
2019-01-10T13:10:32.434Z,0.73